createdAt,value
2023-03-22T00:03:33.454Z,15.13
2023-03-22T00:08:37.255Z,15.57
2023-03-22T00:13:44.048Z,16.15
2023-03-22T00:18:47.731Z,16.52
2023-03-22T00:23:51.228Z,16.92
2023-03-22T00:28:55.962Z,16.02
2023-03-22T00:33:59.587Z,15.38
2023-03-22T00:39:03.305Z,17.88
2023-03-22T00:44:08.170Z,15.93
2023-03-22T00:49:11.489Z,16.02
2023-03-22T00:54:14.957Z,15.82
2023-03-22T00:59:20.096Z,15.98
2023-03-22T01:04:26.346Z,17.75
2023-03-22T01:09:31.155Z,16.13
2023-03-22T01:14:35.916Z,17.20
2023-03-22T01:19:39.581Z,16.90
2023-03-22T01:24:42.907Z,17.02
2023-03-22T01:29:47.805Z,14.40
2023-03-22T01:34:51.641Z,16.55
2023-03-22T01:39:55.663Z,18.00
2023-03-22T01:45:36.029Z,17.58
2023-03-22T01:50:42.985Z,14.63
2023-03-22T01:55:47.784Z,16.83
2023-03-22T02:00:54.154Z,17.08
2023-03-22T02:05:58.421Z,13.23
2023-03-22T02:11:03.743Z,14.23
2023-03-22T02:16:21.033Z,15.43
2023-03-22T02:22:04.608Z,13.02
2023-03-22T02:27:50.869Z,16.17
2023-03-22T02:33:09.002Z,13.68
2023-03-22T02:38:25.388Z,12.23
2023-03-22T02:43:39.390Z,12.55
2023-03-22T02:48:51.554Z,13.57
2023-03-22T02:53:59.260Z,10.03
2023-03-22T02:59:08.128Z,14.23
2023-03-22T03:04:17.579Z,12.20
2023-03-22T03:09:22.511Z,13.23
2023-03-22T03:14:30.340Z,11.75
2023-03-22T03:19:40.498Z,11.18
2023-03-22T03:24:50.041Z,11.18
2023-03-22T03:30:01.629Z,12.63
2023-03-22T03:40:18.986Z,14.43
2023-03-22T03:45:26.342Z,11.60
2023-03-22T03:50:30.123Z,12.90
2023-03-22T03:55:34.970Z,12.73
2023-03-22T04:00:40.458Z,11.82
2023-03-22T04:05:44.287Z,11.13
2023-03-22T04:10:51.935Z,8.90
2023-03-22T04:15:58.175Z,12.20
2023-03-22T04:21:01.505Z,8.70
2023-03-22T04:26:05.981Z,8.85
2023-03-22T04:31:11.016Z,9.20
2023-03-22T04:36:17.699Z,11.95
2023-03-22T04:41:21.250Z,7.57
2023-03-22T04:46:26.695Z,8.95
2023-03-22T04:51:30.614Z,8.85
2023-03-22T04:56:34.396Z,7.95
2023-03-22T05:01:40.862Z,7.82
2023-03-22T05:06:44.517Z,9.88
2023-03-22T05:11:48.144Z,9.38
2023-03-22T05:16:52.928Z,9.68
2023-03-22T05:21:58.592Z,9.02
2023-03-22T05:27:03.799Z,8.98
2023-03-22T05:32:09.943Z,10.32
2023-03-22T05:37:13.543Z,8.20
2023-03-22T05:42:16.922Z,9.38
2023-03-22T05:47:22.248Z,7.57
2023-03-22T05:52:25.905Z,8.48
2023-03-22T05:57:30.267Z,8.15
2023-03-22T06:02:34.961Z,8.70
2023-03-22T06:07:38.497Z,7.32
2023-03-22T06:12:42.192Z,10.77
2023-03-22T06:17:47.433Z,8.07
2023-03-22T06:22:50.824Z,10.45
2023-03-22T06:27:54.495Z,8.10
2023-03-22T06:33:00.863Z,9.50
2023-03-22T06:38:04.452Z,9.15
2023-03-22T06:43:08.146Z,10.30
2023-03-22T06:48:13.015Z,10.00
2023-03-22T06:53:16.686Z,11.27
2023-03-22T06:58:20.234Z,9.32
2023-03-22T07:03:25.288Z,9.07
2023-03-22T07:08:28.732Z,9.18
2023-03-22T07:13:32.208Z,9.20
2023-03-22T07:18:37.900Z,11.07
2023-03-22T07:23:41.471Z,10.18
2023-03-22T07:28:44.872Z,11.32
2023-03-22T07:33:49.714Z,11.05
2023-03-22T07:38:53.587Z,9.30
2023-03-22T07:44:11.193Z,9.32
2023-03-22T07:54:33.554Z,13.07
2023-03-22T08:04:44.854Z,9.93
2023-03-22T08:09:49.636Z,17.30
2023-03-22T08:14:53.313Z,15.63
2023-03-22T08:19:58.425Z,16.75
2023-03-22T08:25:01.987Z,18.50
2023-03-22T08:30:07.858Z,18.27
2023-03-22T08:35:13.601Z,17.33
2023-03-22T08:40:17.461Z,20.50
2023-03-22T08:45:20.936Z,17.20
2023-03-22T08:50:25.735Z,16.27
2023-03-22T08:55:29.237Z,14.63
2023-03-22T09:00:47.446Z,10.00
2023-03-22T09:05:53.172Z,12.50
2023-03-22T09:10:56.708Z,8.95
2023-03-22T09:16:00.074Z,8.18
2023-03-22T09:21:05.806Z,9.60
2023-03-22T09:26:10.590Z,8.48
2023-03-22T09:31:14.037Z,8.90
2023-03-22T09:36:19.878Z,7.03
2023-03-22T09:41:28.602Z,6.93
2023-03-22T09:46:36.019Z,7.20
2023-03-22T09:51:43.196Z,7.05
2023-03-22T09:56:51.349Z,6.85
2023-03-22T10:02:00.494Z,7.00
2023-03-22T10:07:12.050Z,8.38
2023-03-22T10:12:20.863Z,5.55
2023-03-22T10:17:27.762Z,9.05
2023-03-22T10:22:36.676Z,7.40
2023-03-22T10:27:40.121Z,5.97
2023-03-22T10:32:57.193Z,8.18
2023-03-22T10:38:06.608Z,7.30
2023-03-22T10:43:18.592Z,6.35
2023-03-22T10:48:29.049Z,5.37
2023-03-22T10:53:39.958Z,3.53
2023-03-22T10:58:43.811Z,4.28
2023-03-22T11:03:51.596Z,1.95
2023-03-22T11:09:00.506Z,2.75
2023-03-22T11:14:08.121Z,4.47
2023-03-22T11:19:17.115Z,3.03
2023-03-22T11:24:22.590Z,3.45
2023-03-22T11:29:26.053Z,2.05
2023-03-22T11:34:31.947Z,5.95
2023-03-22T11:39:36.844Z,2.55
2023-03-22T11:44:40.399Z,6.07
2023-03-22T11:49:48.482Z,6.30
2023-03-22T11:54:55.452Z,5.80
2023-03-22T12:00:02.104Z,5.72
2023-03-22T12:05:13.393Z,3.65
2023-03-22T12:10:26.603Z,5.05
2023-03-22T12:15:34.605Z,4.60
2023-03-22T12:20:43.773Z,5.30
2023-03-22T12:25:53.074Z,6.15
2023-03-22T12:30:58.762Z,7.18
2023-03-22T12:36:04.196Z,4.80
2023-03-22T12:41:15.600Z,5.43
2023-03-22T12:46:22.329Z,9.35
2023-03-22T12:51:25.870Z,7.55
2023-03-22T12:56:37.072Z,4.22
2023-03-22T13:01:47.680Z,9.85
2023-03-22T13:06:59.718Z,4.18
2023-03-22T13:12:30.526Z,5.40
2023-03-22T13:17:41.927Z,6.43
2023-03-22T13:23:25.692Z,5.25
2023-03-22T13:28:37.159Z,3.15
2023-03-22T13:33:40.687Z,2.80
2023-03-22T13:38:44.926Z,4.80
2023-03-22T13:43:51.473Z,6.88
2023-03-22T13:49:00.790Z,6.25
2023-03-22T13:54:09.874Z,5.55
2023-03-22T13:59:19.586Z,4.22
2023-03-22T14:04:30.265Z,6.03
2023-03-22T14:09:37.387Z,5.68
2023-03-22T14:14:48.182Z,2.92
2023-03-22T14:19:53.842Z,6.07
